Flight Track Log - Related Links

Times and Time Zones

All times are in EDT time to prevent confusion due to time zone crossing. See the CSN6923 flight status page for this flight to view local times or setup timezone preferences in your user account.


Time Position Orientation Groundspeed Altitude Reporting Facility
EDT Latitude Longitude Course Direction KTS MPH feet Rate Location/Type
Wed 07:12:00 AM 22.6687 113.7024 286° West  Level Estimated
Wed 07:13:00 AM 22.6978 113.5923 286° West  Level Estimated
Wed 07:14:00 AM 22.7269 113.4821 286° West  Level Estimated
Wed 07:15:00 AM 22.7558 113.3719 286° West  Level Estimated
Wed 07:16:00 AM 22.7847 113.2617 286° West  Level Estimated
Wed 07:17:00 AM 22.8136 113.1514 286° West  Level Estimated
Wed 07:18:00 AM 22.8423 113.0411 286° West  Level Estimated
Wed 07:19:00 AM 22.8710 112.9307 286° West  Level Estimated
Wed 07:20:00 AM 22.8996 112.8203 286° West  Level Estimated
Wed 07:21:00 AM 22.9281 112.7098 286° West  Level Estimated
Wed 07:22:00 AM 22.9566 112.5993 286° West  Level Estimated
Wed 07:23:00 AM 22.9849 112.4887 286° West  Level Estimated
Wed 07:24:00 AM 23.0132 112.3781 286° West  Level Estimated
Wed 07:25:00 AM 23.0415 112.2675 286° West  Level Estimated
Wed 07:26:00 AM 23.0696 112.1568 285° West  Level Estimated
Wed 07:27:00 AM 23.0977 112.0460 285° West  Level Estimated
Wed 07:28:00 AM 23.1256 111.9352 285° West  Level Estimated
Wed 07:29:00 AM 23.1535 111.8244 285° West  Level Estimated
Wed 07:30:00 AM 23.1814 111.7135 285° West  Level Estimated
Wed 07:31:00 AM 23.2091 111.6026 285° West  Level Estimated
Wed 07:32:00 AM 23.2368 111.4916 285° West  Level Estimated
Wed 07:33:00 AM 23.2644 111.3806 285° West  Level Estimated
Wed 07:34:00 AM 23.2919 111.2695 285° West  Level Estimated
Wed 07:35:00 AM 23.3193 111.1584 285° West  Level Estimated
Wed 07:36:00 AM 23.3467 111.0472 285° West  Level Estimated
Wed 07:37:00 AM 23.3740 110.9360 285° West  Level Estimated
Wed 07:38:00 AM 23.4012 110.8248 285° West  Level Estimated
Wed 07:39:00 AM 23.4283 110.7134 285° West  Level Estimated
Wed 07:40:00 AM 23.4554 110.6021 285° West  Level Estimated
Wed 07:41:00 AM 23.4823 110.4907 285° West  Level Estimated
Wed 07:42:00 AM 23.5092 110.3793 285° West  Level Estimated
Wed 07:43:00 AM 23.5360 110.2678 285° West  Level Estimated
Wed 07:44:00 AM 23.5628 110.1563 285° West  Level Estimated
Wed 07:45:00 AM 23.5894 110.0447 285° West  Level Estimated
Wed 07:46:00 AM 23.6160 109.9331 285° West  Level Estimated
Wed 07:47:00 AM 23.6425 109.8214 285° West  Level Estimated
Wed 07:48:00 AM 23.6689 109.7097 284° West  Level Estimated
Wed 07:49:00 AM 23.6952 109.5980 284° West  Level Estimated
Wed 07:50:00 AM 23.7215 109.4862 284° West  Level Estimated
Wed 07:51:00 AM 23.7476 109.3743 284° West  Level Estimated
Wed 07:52:00 AM 23.7737 109.2624 284° West  Level Estimated
Wed 07:53:00 AM 23.7997 109.1505 284° West  Level Estimated
Wed 07:54:00 AM 23.8257 109.0385 284° West  Level Estimated
Wed 07:55:00 AM 23.8515 108.9265 284° West  Level Estimated
Wed 07:56:00 AM 23.8773 108.8144 284° West  Level Estimated
Wed 07:57:00 AM 23.9030 108.7023 284° West  Level Estimated
Wed 07:58:00 AM 23.9286 108.5901 284° West  Level Estimated
Wed 07:59:00 AM 23.9541 108.4780 284° West  Level Estimated
Wed 08:00:00 AM 23.9795 108.3657 284° West  Level Estimated
Wed 08:01:00 AM 24.0049 108.2534 284° West  Level Estimated
Wed 08:02:00 AM 24.0302 108.1411 284° West  Level Estimated
Wed 08:03:00 AM 24.0554 108.0287 284° West  Level Estimated
Wed 08:04:00 AM 24.0805 107.9163 284° West  Level Estimated
Wed 08:05:00 AM 24.1055 107.8038 284° West  Level Estimated
Wed 08:06:00 AM 24.1304 107.6913 284° West  Level Estimated
Wed 08:07:00 AM 24.1553 107.5788 284° West  Level Estimated
Wed 08:08:00 AM 24.1801 107.4662 284° West  Level Estimated
Wed 08:09:00 AM 24.2048 107.3535 284° West  Level Estimated
Wed 08:10:00 AM 24.2294 107.2408 283° West  Level Estimated
Wed 08:11:00 AM 24.2540 107.1281 283° West  Level Estimated
Wed 08:12:00 AM 24.2784 107.0153 283° West  Level Estimated
Wed 08:13:00 AM 24.3028 106.9025 283° West  Level Estimated
Wed 08:14:00 AM 24.3271 106.7897 283° West  Level Estimated
Wed 08:15:00 AM 24.3513 106.6768 283° West  Level Estimated
Wed 08:16:00 AM 24.3754 106.5638 283° West  Level Estimated
Wed 08:17:00 AM 24.3994 106.4508 283° West  Level Estimated
Wed 08:18:00 AM 24.4234 106.3378 283° West  Level Estimated
Wed 08:19:00 AM 24.4472 106.2247 283° West  Level Estimated
Wed 08:20:00 AM 24.4710 106.1116 283° West  Level Estimated
Wed 08:21:00 AM 24.4947 105.9985 283° West  Level Estimated
Wed 08:22:00 AM 24.5183 105.8853 283° West  Level Estimated
Wed 08:23:00 AM 24.5418 105.7720 283° West  Level Estimated
Wed 08:24:00 AM 24.5653 105.6587 283° West  Level Estimated
Wed 08:25:00 AM 24.5886 105.5454 283° West  Level Estimated
Wed 08:26:00 AM 24.6119 105.4320 283° West  Level Estimated
Wed 08:27:00 AM 24.6351 105.3186 283° West  Level Estimated
Wed 08:28:00 AM 24.6582 105.2052 283° West  Level Estimated
Wed 08:29:00 AM 24.6812 105.0917 283° West  Level Estimated
Wed 08:30:00 AM 24.7042 104.9781 283° West  Level Estimated
Wed 08:31:00 AM 24.7270 104.8645 283° West  Level Estimated
Wed 08:32:00 AM 24.7498 104.7509 282° West  Level Estimated
Wed 08:33:00 AM 24.7725 104.6373 282° West  Level Estimated
Wed 08:34:00 AM 24.7951 104.5236 282° West  Level Estimated
Wed 08:35:00 AM 24.8176 104.4098 282° West  Level Estimated
Wed 08:36:00 AM 24.8400 104.2960 282° West  Level Estimated
Wed 08:37:00 AM 24.8623 104.1822 282° West  Level Estimated
Wed 08:38:00 AM 24.8846 104.0683 282° West  Level Estimated
Wed 08:39:00 AM 24.9067 103.9544 282° West  Level Estimated
Wed 08:40:00 AM 24.9288 103.8405 282° West  Level Estimated
Wed 08:41:00 AM 24.9508 103.7265 282° West  Level Estimated
Wed 08:42:00 AM 24.9727 103.6124 282° West  Level Estimated
Wed 08:43:00 AM 24.9945 103.4984 282° West  Level Estimated
Wed 08:44:00 AM 25.0162 103.3843 282° West  Level Estimated
Wed 08:45:00 AM 25.0379 103.2701 282° West  Level Estimated
Wed 08:46:00 AM 25.0594 103.1559 282° West  Level Estimated
Wed 08:47:00 AM 25.0809 103.0417 282° West  Level Estimated
Wed 08:48:00 AM 25.1019 102.9292 282° West  Level Estimated
Wed 08:49:00 AM 25.1019 102.9292 326° Northwest  Level Estimated
Wed 08:50:00 AM 25.1019 102.9292 326° Northwest  Level Estimated
Wed 08:51:00 AM 25.1019 102.9292 326° Northwest  Level Estimated
Wed 08:52:00 AM 25.1019 102.9292 326° Northwest  Level Estimated
Wed 08:53:00 AM 25.1019 102.9292 326° Northwest  Level Estimated
Wed 08:54:00 AM 25.1019 102.9292 326° Northwest  Level Estimated

Login

Don't have an account? Register now (free) for customized features, flight alerts, and more!